ELNBOWERS FLD
METARs for airports near ELN, sorted by distance:
N 0 nm 1763' KELN 171653Z 30026G40KT 10SM FEW085 BKN110 16/03 A2990
NE 25 nm 1248' KEAT 171555Z 30014KT 10SM SCT070 OVC085 14/03 A2988
S 28 nm 1098' KYKM 171653Z 23007KT 10SM OVC085 16/03 A2992
NE 44 nm 1276' KEPH 171653Z 01006KT 10SM OVC065 16/02 A2987
E 50 nm 1188' KMWH 171652Z 22005KT 10SM FEW065 OVC075 14/04 A2989
SE 66 nm 394' KRLD 171715Z 23006KT 10SM BKN120 18/03 A2991
W 72 nm 537' KPLU 171715Z 00000KT 10SM OVC020 13/09 A3005
W 74 nm 32' KRNT 171653Z 19008KT 10SM -RA BKN021 OVC060 13/08 A3004
SE 74 nm 410' KPSC 171653Z 22007KT 10SM CLR 17/03 A2992
W 76 nm 432' KSEA 171710Z 20007KT 10SM BKN016 OVC050 12/07 A3004
NW 78 nm 21' KBFI 171700Z 20009G16KT 10SM SCT020 OVC055 13/08 A3004
W 79 nm 322' KTCM 171655Z 20007KT 10SM OVC020 14/09 A3003
W 83 nm 301' KGRF 171655Z 19007KT 10SM OVC021 14/09 A3001
W 84 nm 294' KTIW 171653Z 18004KT 10SM OVC019 12/09 A3004
NW 88 nm 606' KPAE 171653Z 22005KT 10SM BKN006 BKN014 OVC027 12/09 A3004
S 89 nm 246' KDLS 171653Z 31013G27KT FEW050 SCT110 17/05 A3000
SE 89 nm 644' KHRI 171653Z 25013G19KT 10SM CLR 18/03 A2994
NW 94 nm 141' KAWO 171722Z 15007KT 2 1/2SM -RA BR SCT008 BKN011 OVC018 11/09 A3005
NE 95 nm 1304' KOMK 171653Z 34006KT 10SM OVC070 15/07 A2987
W 95 nm 444' KPWT 171656Z 21004KT 10SM SCT013 A3004
W 97 nm 207' KOLM 171654Z 24006KT 10SM FEW019 SCT025 OVC033 14/09 A3005
TAFs for airports near ELN, sorted by distance:
NE 25 nm 1248' KEAT TAF KEAT 171129Z 1712/1812 33007KT P6SM SKC
  FM171800 30015G22KT P6SM SCT080
  FM180000 30020G28KT P6SM SCT200
  FM180600 30014KT P6SM BKN250
S 28 nm 1098' KYKM KYKM 171721Z 1718/1818 31013G25KT P6SM FEW060 BKN080
  FM180700 29006KT P6SM SCT080
E 50 nm 1188' KMWH KMWH 171129Z 1712/1812 VRB03KT P6SM BKN090
  FM171600 31009KT P6SM SCT080 BKN100
  FM172000 27012KT P6SM SCT080 BKN100
  FM180300 29013KT P6SM SCT100
  FM180600 29007KT P6SM BKN250
SE 74 nm 410' KPSC KPSC 171721Z 1718/1818 24011KT P6SM SCT080 BKN150
  FM180300 29009KT P6SM SCT080
  FM180700 20006KT P6SM FEW080
W 76 nm 432' KSEA KSEA 171725Z 1718/1824 20007KT P6SM VCSH BKN015 OVC050
  FM172000 22010KT P6SM BKN040
  FM180400 20008KT P6SM OVC040
  FM181200 18004KT P6SM OVC025
  FM181800 27005KT P6SM SCT025 BKN040
NW 78 nm 21' KBFI KBFI 171725Z 1718/1818 20009KT P6SM SCT020 OVC060
  FM172100 22010KT P6SM BKN060
  FM180400 VRB03KT P6SM OVC060
  FM181200 16003KT P6SM OVC030
  FM181700 25003KT P6SM SCT030 BKN050
W 79 nm 322' KTCM TAF KTCM 171300Z 1713/1819 19006KT 9999 OVC050 620606 QNH3000INS
  TEMPO 1713/1715 BKN015
  BECMG 1716/1717 21006KT 9999 BKN025 OVC050 620601 QNH3001INS
  BECMG 1720/1721 24010G15KT 9999 VCSH BKN040 610603 QNH3001INS
  BECMG 1723/1724 24010G15KT 9999 NSW BKN050 620603 QNH3001INS
  TEMPO 1800/1803 24012G20KT
  BECMG 1804/1805 22010KT 9999 BKN020 620603 QNH3004INS TX18/1721Z TN09/1809Z
W 83 nm 301' KGRF TAF KGRF 171300Z 1713/1819 13006KT 8000 BR SCT008 BKN012 OVC090 QNH2997INS
  BECMG 1715/1716 22006KT 9999 NSW BKN020 QNH2999INS
  BECMG 1718/1719 24009KT 9999 BKN030 QNH2999INS
  TEMPO 1722/1804 25012G20KT
  BECMG 1805/1806 13006KT 9999 BKN015 OVC045 QNH3003INS
  BECMG 1816/1817 24006KT 9999 OVC020 QNH3006INS TX19/1722Z TN08/1713Z
NW 88 nm 606' KPAE KPAE 171725Z 1718/1818 22005KT P6SM VCSH BKN006 BKN015 OVC030
  FM172100 33006KT P6SM BKN030 OVC050
  FM180000 30005KT P6SM SCT030 OVC050
  FM180600 VRB05KT P6SM SCT020 OVC040
  FM181200 19003KT P6SM SCT015 OVC025
S 89 nm 246' KDLS KDLS 171721Z 1718/1818 30020G30KT P6SM SCT050
  FM180300 28013KT P6SM FEW050
  FM180800 27006KT P6SM SKC
W 95 nm 444' KPWT TAF KPWT 171725Z 1718/1818 21004KT P6SM SCT015 SCT050
  FM172000 21009KT P6SM FEW030 SCT050
  FM180400 21006KT P6SM OVC030
  FM180900 VRB03KT P6SM OVC020
  FM181200 00000KT P6SM OVC007
W 97 nm 207' KOLM TAF KOLM 171725Z 1718/1818 24006KT P6SM SCT025 OVC035
  FM171900 25011G18KT P6SM SCT030 OVC050
  FM180300 25006KT P6SM BKN050
  FM180700 VRB04KT P6SM OVC030
  FM181200 VRB02KT P6SM BKN025

Shortcut to this page: http://wxbay.com.

Data may contain errors.